Indianapolis International, IN

12:33 PM EST on November 27, 2014 (GMT -0500)
Thompson Medows | Change Station
CLOSE
Current Station
Personal Weather Station
Location: Indianapolis, IN
Elevation: 745 ft
Nearby Weather Stations

Elev 745 ft 39.69 °N, 86.26 °W | Updated 14 minutes ago

Light Snow
Light Snow
31.6 °F
Feels Like 24 °F
N
7.8
Wind Variable Wind from ENE

Today
High -- | Low -- °F
--% Chance of Precip.
Yesterday
High -- | Low -- °F
Precip. -- in
7:42 AM 5:22 PM
Waxing Crescent, 31% visible
Pressure 30.32 in
Visibility 5.0 miles
Clouds Mostly Cloudy 1900 ft
Mostly Cloudy 3900 ft
Windchill 24 °F
Dew Point 27 °F
Humidity 84%
Rainfall 0.00 in
Snow Depth Not available.
UV 2 out of 12
Pollen .10 out of 12
Air Quality Not available.
Flu Activity Not available.
SPECI KIND 271712Z 29014KT 5SM -SN BKN019 BKN039 M01/M05 A3032 RMK AO2 P0000 T10111050

More Conditions Fewer Conditions

Pressure 30.32 in
Visibility 5.0 miles
Clouds Mostly Cloudy 1900 ft
Mostly Cloudy 3900 ft
Windchill 24 °F
Dew Point 27 °F
Humidity 84%
Rainfall 0.00 in
Snow Depth Not available.
UV 2 out of 12
Pollen .10 out of 12
Air Quality Not available.
Flu Activity Not available.
SPECI KIND 271712Z 29014KT 5SM -SN BKN019 BKN039 M01/M05 A3032 RMK AO2 P0000 T10111050

More Conditions Fewer Conditions

10-Day Weather Forecast

Almanac

Astronomy

Nov. 27, 2014 Rise Set
Actual Time
Civil Twilight
Nautical Twilight
Astronomical Twilight
Moon
Length of Visible Light
Length of Day
Tomorrow will be .
, % of the Moon is Illuminated

Today's Extremes

State Highs State Lows

Community

WunderPhotos

Upload Photos

1,774,054 photos uploaded!

WunderBlogs® & News

Nearby

Air Quality

  Air Quality AQ Index Pollutant
Not available.

Snow Depth

Station Depth Elevation

Earthquake Activity

City Distance Mag. Time & Date
Minimum magnitude displayed is 2.5.

Coastal Water Temperatures

Place Temperature

Nearby Weather Stations